sensor_id;sensor_type;location;lat;lon;timestamp;P1;durP1;ratioP1;P2;durP2;ratioP2
69057;SDS011;56128;37.534;-122.308;2022-09-09T00:03:54;14.13;;;5.47;;
69057;SDS011;56128;37.534;-122.308;2022-09-09T00:06:33;13.55;;;5.82;;
69057;SDS011;56128;37.534;-122.308;2022-09-09T00:09:07;16.38;;;5.75;;
69057;SDS011;56128;37.534;-122.308;2022-09-09T00:14:54;15.45;;;6.32;;
69057;SDS011;56128;37.534;-122.308;2022-09-09T00:17:50;13.60;;;6.60;;
69057;SDS011;56128;37.534;-122.308;2022-09-09T00:20:34;14.13;;;6.38;;
69057;SDS011;56128;37.534;-122.308;2022-09-09T00:28:27;12.52;;;6.53;;
69057;SDS011;56128;37.534;-122.308;2022-09-09T00:30:59;13.25;;;5.63;;
69057;SDS011;56128;37.534;-122.308;2022-09-09T00:33:36;8.98;;;4.03;;
69057;SDS011;56128;37.534;-122.308;2022-09-09T00:36:04;5.15;;;3.05;;
69057;SDS011;56128;37.534;-122.308;2022-09-09T00:38:40;4.20;;;2.35;;
69057;SDS011;56128;37.534;-122.308;2022-09-09T00:46:51;6.68;;;2.63;;
69057;SDS011;56128;37.534;-122.308;2022-09-09T00:49:39;8.65;;;2.70;;
69057;SDS011;56128;37.534;-122.308;2022-09-09T00:52:44;3.95;;;2.35;;
69057;SDS011;56128;37.534;-122.308;2022-09-09T00:55:27;5.13;;;2.35;;
69057;SDS011;56128;37.534;-122.308;2022-09-09T00:57:57;5.90;;;2.65;;
69057;SDS011;56128;37.534;-122.308;2022-09-09T01:00:25;4.63;;;2.50;;
69057;SDS011;56128;37.534;-122.308;2022-09-09T01:11:24;6.45;;;2.50;;
69057;SDS011;56128;37.534;-122.308;2022-09-09T01:16:43;5.63;;;2.90;;
69057;SDS011;56128;37.534;-122.308;2022-09-09T01:19:13;7.78;;;2.75;;
69057;SDS011;56128;37.534;-122.308;2022-09-09T01:21:50;18.50;;;7.78;;
69057;SDS011;56128;37.534;-122.308;2022-09-09T01:27:00;24.45;;;8.65;;
69057;SDS011;56128;37.534;-122.308;2022-09-09T01:29:27;25.27;;;9.13;;
69057;SDS011;56128;37.534;-122.308;2022-09-09T01:31:55;27.40;;;9.65;;
69057;SDS011;56128;37.534;-122.308;2022-09-09T01:34:24;29.42;;;9.75;;
69057;SDS011;56128;37.534;-122.308;2022-09-09T01:36:57;28.52;;;9.88;;
69057;SDS011;56128;37.534;-122.308;2022-09-09T01:39:25;23.95;;;9.13;;
69057;SDS011;56128;37.534;-122.308;2022-09-09T01:41:52;22.30;;;9.68;;
69057;SDS011;56128;37.534;-122.308;2022-09-09T01:44:20;31.23;;;9.55;;
69057;SDS011;56128;37.534;-122.308;2022-09-09T01:46:47;26.40;;;9.75;;
69057;SDS011;56128;37.534;-122.308;2022-09-09T01:49:13;29.30;;;10.27;;
69057;SDS011;56128;37.534;-122.308;2022-09-09T01:51:39;26.40;;;9.98;;
69057;SDS011;56128;37.534;-122.308;2022-09-09T01:54:08;23.52;;;10.05;;
69057;SDS011;56128;37.534;-122.308;2022-09-09T02:09:50;36.22;;;12.20;;
69057;SDS011;56128;37.534;-122.308;2022-09-09T02:12:22;33.40;;;11.23;;
69057;SDS011;56128;37.534;-122.308;2022-09-09T02:14:52;30.80;;;11.50;;
69057;SDS011;56128;37.534;-122.308;2022-09-09T02:17:28;36.50;;;11.40;;
69057;SDS011;56128;37.534;-122.308;2022-09-09T02:20:05;29.88;;;10.90;;
69057;SDS011;56128;37.534;-122.308;2022-09-09T02:22:33;37.00;;;11.20;;
69057;SDS011;56128;37.534;-122.308;2022-09-09T02:25:05;32.08;;;11.40;;
69057;SDS011;56128;37.534;-122.308;2022-09-09T02:27:34;34.67;;;11.27;;
69057;SDS011;56128;37.534;-122.308;2022-09-09T02:30:00;37.75;;;11.50;;
69057;SDS011;56128;37.534;-122.308;2022-09-09T02:32:28;30.42;;;11.18;;
69057;SDS011;56128;37.534;-122.308;2022-09-09T02:34:59;34.83;;;12.07;;
69057;SDS011;56128;37.534;-122.308;2022-09-09T02:37:33;40.55;;;12.15;;
69057;SDS011;56128;37.534;-122.308;2022-09-09T02:40:03;35.10;;;12.30;;
69057;SDS011;56128;37.534;-122.308;2022-09-09T02:42:31;35.70;;;11.73;;
69057;SDS011;56128;37.534;-122.308;2022-09-09T02:44:57;37.72;;;11.27;;
69057;SDS011;56128;37.534;-122.308;2022-09-09T02:50:17;32.80;;;11.32;;
69057;SDS011;56128;37.534;-122.308;2022-09-09T02:55:23;33.08;;;11.00;;
69057;SDS011;56128;37.534;-122.308;2022-09-09T02:58:02;39.85;;;12.70;;
69057;SDS011;56128;37.534;-122.308;2022-09-09T03:00:32;36.20;;;11.80;;
69057;SDS011;56128;37.534;-122.308;2022-09-09T03:03:02;35.95;;;11.43;;
69057;SDS011;56128;37.534;-122.308;2022-09-09T03:05:29;38.28;;;11.52;;
69057;SDS011;56128;37.534;-122.308;2022-09-09T03:07:55;33.30;;;11.00;;
69057;SDS011;56128;37.534;-122.308;2022-09-09T03:10:22;35.42;;;12.55;;
69057;SDS011;56128;37.534;-122.308;2022-09-09T03:12:48;37.22;;;11.82;;
69057;SDS011;56128;37.534;-122.308;2022-09-09T03:15:15;42.15;;;12.18;;
69057;SDS011;56128;37.534;-122.308;2022-09-09T03:17:44;37.75;;;11.52;;
69057;SDS011;56128;37.534;-122.308;2022-09-09T03:20:10;41.25;;;11.57;;
69057;SDS011;56128;37.534;-122.308;2022-09-09T03:22:37;38.72;;;11.82;;
69057;SDS011;56128;37.534;-122.308;2022-09-09T03:25:04;37.30;;;11.32;;
69057;SDS011;56128;37.534;-122.308;2022-09-09T03:27:31;39.00;;;12.25;;
69057;SDS011;56128;37.534;-122.308;2022-09-09T03:29:57;37.17;;;11.35;;
69057;SDS011;56128;37.534;-122.308;2022-09-09T03:32:24;39.75;;;12.25;;
69057;SDS011;56128;37.534;-122.308;2022-09-09T03:34:51;43.08;;;13.30;;
69057;SDS011;56128;37.534;-122.308;2022-09-09T03:37:18;39.70;;;11.43;;
69057;SDS011;56128;37.534;-122.308;2022-09-09T03:39:45;31.27;;;11.23;;
69057;SDS011;56128;37.534;-122.308;2022-09-09T03:42:14;36.97;;;12.65;;
69057;SDS011;56128;37.534;-122.308;2022-09-09T03:47:16;40.50;;;12.43;;
69057;SDS011;56128;37.534;-122.308;2022-09-09T03:49:43;39.40;;;13.27;;
69057;SDS011;56128;37.534;-122.308;2022-09-09T03:52:10;42.75;;;13.18;;
69057;SDS011;56128;37.534;-122.308;2022-09-09T03:54:36;41.20;;;11.25;;
69057;SDS011;56128;37.534;-122.308;2022-09-09T03:57:03;42.63;;;12.32;;
69057;SDS011;56128;37.534;-122.308;2022-09-09T03:59:30;41.85;;;11.63;;
69057;SDS011;56128;37.534;-122.308;2022-09-09T04:01:56;41.95;;;12.85;;
69057;SDS011;56128;37.534;-122.308;2022-09-09T04:04:24;43.28;;;12.75;;
69057;SDS011;56128;37.534;-122.308;2022-09-09T04:06:51;40.03;;;12.00;;
69057;SDS011;56128;37.534;-122.308;2022-09-09T04:09:18;41.38;;;12.35;;
69057;SDS011;56128;37.534;-122.308;2022-09-09T04:11:44;34.78;;;11.55;;
69057;SDS011;56128;37.534;-122.308;2022-09-09T04:14:11;39.15;;;11.40;;
69057;SDS011;56128;37.534;-122.308;2022-09-09T04:16:38;34.78;;;11.30;;
69057;SDS011;56128;37.534;-122.308;2022-09-09T04:19:04;47.85;;;13.02;;
69057;SDS011;56128;37.534;-122.308;2022-09-09T04:21:32;43.58;;;12.15;;
69057;SDS011;56128;37.534;-122.308;2022-09-09T04:23:59;44.33;;;11.80;;
69057;SDS011;56128;37.534;-122.308;2022-09-09T04:26:25;38.45;;;10.68;;
69057;SDS011;56128;37.534;-122.308;2022-09-09T04:28:51;39.83;;;11.57;;
69057;SDS011;56128;37.534;-122.308;2022-09-09T04:31:18;41.58;;;12.27;;
69057;SDS011;56128;37.534;-122.308;2022-09-09T04:33:48;39.13;;;11.55;;
69057;SDS011;56128;37.534;-122.308;2022-09-09T04:36:14;35.03;;;10.70;;
69057;SDS011;56128;37.534;-122.308;2022-09-09T04:38:41;39.38;;;10.52;;
69057;SDS011;56128;37.534;-122.308;2022-09-09T04:41:09;46.78;;;11.10;;
69057;SDS011;56128;37.534;-122.308;2022-09-09T04:43:36;40.05;;;11.73;;
69057;SDS011;56128;37.534;-122.308;2022-09-09T04:46:03;42.88;;;11.85;;
69057;SDS011;56128;37.534;-122.308;2022-09-09T04:48:30;41.35;;;11.00;;
69057;SDS011;56128;37.534;-122.308;2022-09-09T04:50:58;42.65;;;11.38;;
69057;SDS011;56128;37.534;-122.308;2022-09-09T04:53:30;40.05;;;12.27;;
69057;SDS011;56128;37.534;-122.308;2022-09-09T04:56:12;40.67;;;10.80;;
69057;SDS011;56128;37.534;-122.308;2022-09-09T04:58:40;38.35;;;11.23;;
69057;SDS011;56128;37.534;-122.308;2022-09-09T05:01:12;41.17;;;11.85;;
69057;SDS011;56128;37.534;-122.308;2022-09-09T05:03:47;35.17;;;11.35;;
69057;SDS011;56128;37.534;-122.308;2022-09-09T05:06:14;41.22;;;12.20;;
69057;SDS011;56128;37.534;-122.308;2022-09-09T05:08:42;43.85;;;12.13;;
69057;SDS011;56128;37.534;-122.308;2022-09-09T05:11:16;35.42;;;10.52;;
69057;SDS011;56128;37.534;-122.308;2022-09-09T05:13:44;33.03;;;10.43;;
69057;SDS011;56128;37.534;-122.308;2022-09-09T05:16:10;37.67;;;10.52;;
69057;SDS011;56128;37.534;-122.308;2022-09-09T05:18:38;34.47;;;10.45;;
69057;SDS011;56128;37.534;-122.308;2022-09-09T05:21:06;30.15;;;10.52;;
69057;SDS011;56128;37.534;-122.308;2022-09-09T05:23:33;38.83;;;9.88;;
69057;SDS011;56128;37.534;-122.308;2022-09-09T05:26:00;40.65;;;10.30;;
69057;SDS011;56128;37.534;-122.308;2022-09-09T05:28:27;35.13;;;9.05;;
69057;SDS011;56128;37.534;-122.308;2022-09-09T05:30:55;38.25;;;10.77;;
69057;SDS011;56128;37.534;-122.308;2022-09-09T05:33:33;41.28;;;10.68;;
69057;SDS011;56128;37.534;-122.308;2022-09-09T05:36:02;36.97;;;10.43;;
69057;SDS011;56128;37.534;-122.308;2022-09-09T05:38:33;37.72;;;10.43;;
69057;SDS011;56128;37.534;-122.308;2022-09-09T05:41:01;38.33;;;10.57;;
69057;SDS011;56128;37.534;-122.308;2022-09-09T05:43:28;35.40;;;10.27;;
69057;SDS011;56128;37.534;-122.308;2022-09-09T05:46:13;38.90;;;10.93;;
69057;SDS011;56128;37.534;-122.308;2022-09-09T05:48:42;30.35;;;9.82;;
69057;SDS011;56128;37.534;-122.308;2022-09-09T05:51:12;33.83;;;9.93;;
69057;SDS011;56128;37.534;-122.308;2022-09-09T05:53:46;38.38;;;10.50;;
69057;SDS011;56128;37.534;-122.308;2022-09-09T05:56:13;35.78;;;10.25;;
69057;SDS011;56128;37.534;-122.308;2022-09-09T05:58:44;37.30;;;11.05;;
69057;SDS011;56128;37.534;-122.308;2022-09-09T06:01:13;36.03;;;10.07;;
69057;SDS011;56128;37.534;-122.308;2022-09-09T06:03:41;40.78;;;10.55;;
69057;SDS011;56128;37.534;-122.308;2022-09-09T06:06:09;42.08;;;11.10;;
69057;SDS011;56128;37.534;-122.308;2022-09-09T06:08:38;41.67;;;10.98;;
69057;SDS011;56128;37.534;-122.308;2022-09-09T06:11:12;35.05;;;9.98;;
69057;SDS011;56128;37.534;-122.308;2022-09-09T06:13:41;40.85;;;10.93;;
69057;SDS011;56128;37.534;-122.308;2022-09-09T06:16:11;39.95;;;10.55;;
69057;SDS011;56128;37.534;-122.308;2022-09-09T06:18:39;38.53;;;11.82;;
69057;SDS011;56128;37.534;-122.308;2022-09-09T06:21:07;34.47;;;10.00;;
69057;SDS011;56128;37.534;-122.308;2022-09-09T06:23:43;40.38;;;10.38;;
69057;SDS011;56128;37.534;-122.308;2022-09-09T06:26:11;34.08;;;9.70;;
69057;SDS011;56128;37.534;-122.308;2022-09-09T06:28:37;41.08;;;9.95;;
69057;SDS011;56128;37.534;-122.308;2022-09-09T06:31:05;44.92;;;10.30;;
69057;SDS011;56128;37.534;-122.308;2022-09-09T06:33:33;39.17;;;9.93;;
69057;SDS011;56128;37.534;-122.308;2022-09-09T06:36:00;37.70;;;10.50;;
69057;SDS011;56128;37.534;-122.308;2022-09-09T06:38:29;43.25;;;11.35;;
69057;SDS011;56128;37.534;-122.308;2022-09-09T06:40:55;40.00;;;11.07;;
69057;SDS011;56128;37.534;-122.308;2022-09-09T06:43:27;40.70;;;10.60;;
69057;SDS011;56128;37.534;-122.308;2022-09-09T06:45:57;35.40;;;10.70;;
69057;SDS011;56128;37.534;-122.308;2022-09-09T06:48:24;45.55;;;12.35;;
69057;SDS011;56128;37.534;-122.308;2022-09-09T06:51:01;39.92;;;9.70;;
69057;SDS011;56128;37.534;-122.308;2022-09-09T06:53:32;41.42;;;11.45;;
69057;SDS011;56128;37.534;-122.308;2022-09-09T06:56:00;37.78;;;10.80;;
69057;SDS011;56128;37.534;-122.308;2022-09-09T06:58:50;43.72;;;11.48;;
69057;SDS011;56128;37.534;-122.308;2022-09-09T07:01:24;41.28;;;10.82;;
69057;SDS011;56128;37.534;-122.308;2022-09-09T07:03:53;43.88;;;12.57;;
69057;SDS011;56128;37.534;-122.308;2022-09-09T07:06:21;39.55;;;10.55;;
69057;SDS011;56128;37.534;-122.308;2022-09-09T07:08:50;37.65;;;11.13;;
69057;SDS011;56128;37.534;-122.308;2022-09-09T07:11:17;35.20;;;10.07;;
69057;SDS011;56128;37.534;-122.308;2022-09-09T07:13:44;39.95;;;10.90;;
69057;SDS011;56128;37.534;-122.308;2022-09-09T07:16:12;43.08;;;11.50;;
69057;SDS011;56128;37.534;-122.308;2022-09-09T07:18:40;44.10;;;11.38;;
69057;SDS011;56128;37.534;-122.308;2022-09-09T07:21:07;39.58;;;11.02;;
69057;SDS011;56128;37.534;-122.308;2022-09-09T07:23:38;45.92;;;12.70;;
69057;SDS011;56128;37.534;-122.308;2022-09-09T07:26:16;41.13;;;10.73;;
69057;SDS011;56128;37.534;-122.308;2022-09-09T07:28:46;45.58;;;10.98;;
69057;SDS011;56128;37.534;-122.308;2022-09-09T07:31:14;44.20;;;11.57;;
69057;SDS011;56128;37.534;-122.308;2022-09-09T07:33:42;43.97;;;11.38;;
69057;SDS011;56128;37.534;-122.308;2022-09-09T07:36:12;54.17;;;12.43;;
69057;SDS011;56128;37.534;-122.308;2022-09-09T07:38:40;47.13;;;11.70;;
69057;SDS011;56128;37.534;-122.308;2022-09-09T07:41:11;52.58;;;11.82;;
69057;SDS011;56128;37.534;-122.308;2022-09-09T07:43:39;44.90;;;11.00;;
69057;SDS011;56128;37.534;-122.308;2022-09-09T07:46:10;46.00;;;11.73;;
69057;SDS011;56128;37.534;-122.308;2022-09-09T07:48:45;43.30;;;10.88;;
69057;SDS011;56128;37.534;-122.308;2022-09-09T07:51:15;40.42;;;11.18;;
69057;SDS011;56128;37.534;-122.308;2022-09-09T07:53:44;47.38;;;10.85;;
69057;SDS011;56128;37.534;-122.308;2022-09-09T07:56:13;41.08;;;10.65;;
69057;SDS011;56128;37.534;-122.308;2022-09-09T07:58:42;45.40;;;11.40;;
69057;SDS011;56128;37.534;-122.308;2022-09-09T08:01:14;47.78;;;11.93;;
69057;SDS011;56128;37.534;-122.308;2022-09-09T08:03:43;40.75;;;9.90;;
69057;SDS011;56128;37.534;-122.308;2022-09-09T08:06:13;47.72;;;11.38;;
69057;SDS011;56128;37.534;-122.308;2022-09-09T08:08:40;41.67;;;10.98;;
69057;SDS011;56128;37.534;-122.308;2022-09-09T08:11:10;48.22;;;11.57;;
69057;SDS011;56128;37.534;-122.308;2022-09-09T08:13:39;49.33;;;11.98;;
69057;SDS011;56128;37.534;-122.308;2022-09-09T08:16:11;40.95;;;11.80;;
69057;SDS011;56128;37.534;-122.308;2022-09-09T08:18:47;44.65;;;12.07;;
69057;SDS011;56128;37.534;-122.308;2022-09-09T08:21:16;45.70;;;11.52;;
69057;SDS011;56128;37.534;-122.308;2022-09-09T08:23:47;45.80;;;12.27;;
69057;SDS011;56128;37.534;-122.308;2022-09-09T08:26:14;43.67;;;11.27;;
69057;SDS011;56128;37.534;-122.308;2022-09-09T08:28:52;51.38;;;11.65;;
69057;SDS011;56128;37.534;-122.308;2022-09-09T08:31:22;44.10;;;10.60;;
69057;SDS011;56128;37.534;-122.308;2022-09-09T08:33:56;45.63;;;12.18;;
69057;SDS011;56128;37.534;-122.308;2022-09-09T08:36:25;42.38;;;10.68;;
69057;SDS011;56128;37.534;-122.308;2022-09-09T08:38:55;47.85;;;12.63;;
69057;SDS011;56128;37.534;-122.308;2022-09-09T08:52:16;42.25;;;11.63;;
69057;SDS011;56128;37.534;-122.308;2022-09-09T08:54:50;48.75;;;11.55;;
69057;SDS011;56128;37.534;-122.308;2022-09-09T08:57:21;45.47;;;11.38;;
69057;SDS011;56128;37.534;-122.308;2022-09-09T08:59:53;40.10;;;11.05;;
69057;SDS011;56128;37.534;-122.308;2022-09-09T09:02:24;53.45;;;11.32;;
69057;SDS011;56128;37.534;-122.308;2022-09-09T09:13:13;49.80;;;11.75;;
69057;SDS011;56128;37.534;-122.308;2022-09-09T09:15:54;53.75;;;12.52;;
69057;SDS011;56128;37.534;-122.308;2022-09-09T09:18:29;33.15;;;10.25;;
69057;SDS011;56128;37.534;-122.308;2022-09-09T09:21:08;44.38;;;10.75;;
69057;SDS011;56128;37.534;-122.308;2022-09-09T09:23:56;48.72;;;11.23;;
69057;SDS011;56128;37.534;-122.308;2022-09-09T09:26:25;42.35;;;10.98;;
69057;SDS011;56128;37.534;-122.308;2022-09-09T09:29:13;49.88;;;12.32;;
69057;SDS011;56128;37.534;-122.308;2022-09-09T09:31:44;45.95;;;11.13;;
69057;SDS011;56128;37.534;-122.308;2022-09-09T09:34:14;45.55;;;11.70;;
69057;SDS011;56128;37.534;-122.308;2022-09-09T09:36:44;39.60;;;10.05;;
69057;SDS011;56128;37.534;-122.308;2022-09-09T09:39:29;49.05;;;11.25;;
69057;SDS011;56128;37.534;-122.308;2022-09-09T09:42:11;45.15;;;11.13;;
69057;SDS011;56128;37.534;-122.308;2022-09-09T09:44:39;41.88;;;10.68;;
69057;SDS011;56128;37.534;-122.308;2022-09-09T09:49:39;39.40;;;10.68;;
69057;SDS011;56128;37.534;-122.308;2022-09-09T09:52:17;45.13;;;11.35;;
69057;SDS011;56128;37.534;-122.308;2022-09-09T09:54:49;50.25;;;11.65;;
69057;SDS011;56128;37.534;-122.308;2022-09-09T09:57:17;39.10;;;10.52;;
69057;SDS011;56128;37.534;-122.308;2022-09-09T09:59:59;50.55;;;11.50;;
69057;SDS011;56128;37.534;-122.308;2022-09-09T10:02:40;43.65;;;11.93;;
69057;SDS011;56128;37.534;-122.308;2022-09-09T10:05:29;40.90;;;11.00;;
69057;SDS011;56128;37.534;-122.308;2022-09-09T10:08:02;49.53;;;11.07;;
69057;SDS011;56128;37.534;-122.308;2022-09-09T10:21:19;44.20;;;9.88;;
69057;SDS011;56128;37.534;-122.308;2022-09-09T10:42:45;45.65;;;11.27;;
69057;SDS011;56128;37.534;-122.308;2022-09-09T10:45:29;44.30;;;10.50;;
69057;SDS011;56128;37.534;-122.308;2022-09-09T10:53:46;42.88;;;11.60;;
69057;SDS011;56128;37.534;-122.308;2022-09-09T10:56:33;43.65;;;10.13;;
69057;SDS011;56128;37.534;-122.308;2022-09-09T10:59:09;45.42;;;10.18;;
69057;SDS011;56128;37.534;-122.308;2022-09-09T11:01:44;44.50;;;10.02;;
69057;SDS011;56128;37.534;-122.308;2022-09-09T11:04:22;52.58;;;11.80;;
69057;SDS011;56128;37.534;-122.308;2022-09-09T11:06:57;44.47;;;10.10;;
69057;SDS011;56128;37.534;-122.308;2022-09-09T11:09:31;48.40;;;11.32;;
69057;SDS011;56128;37.534;-122.308;2022-09-09T11:12:02;39.83;;;11.10;;
69057;SDS011;56128;37.534;-122.308;2022-09-09T11:14:37;41.28;;;11.05;;
69057;SDS011;56128;37.534;-122.308;2022-09-09T11:17:20;48.38;;;11.25;;
69057;SDS011;56128;37.534;-122.308;2022-09-09T11:19:50;49.65;;;10.60;;
69057;SDS011;56128;37.534;-122.308;2022-09-09T11:22:33;43.25;;;10.25;;
69057;SDS011;56128;37.534;-122.308;2022-09-09T11:30:38;48.40;;;11.93;;
69057;SDS011;56128;37.534;-122.308;2022-09-09T11:39:27;49.42;;;11.90;;
69057;SDS011;56128;37.534;-122.308;2022-09-09T11:44:38;42.67;;;10.43;;
69057;SDS011;56128;37.534;-122.308;2022-09-09T11:47:17;48.13;;;10.15;;
69057;SDS011;56128;37.534;-122.308;2022-09-09T11:50:06;44.90;;;11.43;;
69057;SDS011;56128;37.534;-122.308;2022-09-09T11:53:47;51.72;;;11.05;;
69057;SDS011;56128;37.534;-122.308;2022-09-09T11:55:39;42.67;;;10.05;;
69057;SDS011;56128;37.534;-122.308;2022-09-09T11:58:06;47.40;;;12.02;;
69057;SDS011;56128;37.534;-122.308;2022-09-09T12:00:46;50.42;;;11.57;;
69057;SDS011;56128;37.534;-122.308;2022-09-09T12:06:08;51.20;;;11.20;;
69057;SDS011;56128;37.534;-122.308;2022-09-09T12:08:51;38.78;;;9.38;;
69057;SDS011;56128;37.534;-122.308;2022-09-09T12:11:23;52.20;;;11.30;;
69057;SDS011;56128;37.534;-122.308;2022-09-09T12:13:58;50.88;;;12.02;;
69057;SDS011;56128;37.534;-122.308;2022-09-09T12:16:37;49.95;;;11.70;;
69057;SDS011;56128;37.534;-122.308;2022-09-09T12:19:16;48.67;;;11.40;;
69057;SDS011;56128;37.534;-122.308;2022-09-09T12:25:16;50.40;;;12.85;;
69057;SDS011;56128;37.534;-122.308;2022-09-09T12:27:46;44.75;;;12.05;;
69057;SDS011;56128;37.534;-122.308;2022-09-09T12:30:22;47.95;;;11.80;;
69057;SDS011;56128;37.534;-122.308;2022-09-09T12:33:02;56.08;;;11.65;;
69057;SDS011;56128;37.534;-122.308;2022-09-09T12:35:41;57.92;;;12.55;;
69057;SDS011;56128;37.534;-122.308;2022-09-09T12:38:19;56.97;;;12.02;;
69057;SDS011;56128;37.534;-122.308;2022-09-09T12:40:59;51.65;;;11.45;;
69057;SDS011;56128;37.534;-122.308;2022-09-09T12:43:26;49.45;;;11.95;;
69057;SDS011;56128;37.534;-122.308;2022-09-09T12:45:54;53.05;;;11.30;;
69057;SDS011;56128;37.534;-122.308;2022-09-09T12:48:38;55.50;;;11.30;;
69057;SDS011;56128;37.534;-122.308;2022-09-09T12:51:20;53.47;;;10.77;;
69057;SDS011;56128;37.534;-122.308;2022-09-09T12:53:51;55.88;;;11.38;;
69057;SDS011;56128;37.534;-122.308;2022-09-09T12:56:19;43.97;;;11.73;;
69057;SDS011;56128;37.534;-122.308;2022-09-09T12:58:52;47.90;;;10.75;;
69057;SDS011;56128;37.534;-122.308;2022-09-09T13:01:22;57.35;;;11.68;;
69057;SDS011;56128;37.534;-122.308;2022-09-09T13:03:53;46.85;;;11.55;;
69057;SDS011;56128;37.534;-122.308;2022-09-09T13:06:24;51.22;;;11.05;;
69057;SDS011;56128;37.534;-122.308;2022-09-09T13:08:58;56.95;;;12.35;;
69057;SDS011;56128;37.534;-122.308;2022-09-09T13:11:26;56.83;;;12.40;;
69057;SDS011;56128;37.534;-122.308;2022-09-09T13:13:59;58.08;;;11.88;;
69057;SDS011;56128;37.534;-122.308;2022-09-09T13:16:27;49.25;;;10.30;;
69057;SDS011;56128;37.534;-122.308;2022-09-09T13:19:02;46.08;;;10.70;;
69057;SDS011;56128;37.534;-122.308;2022-09-09T13:21:35;47.08;;;11.45;;
69057;SDS011;56128;37.534;-122.308;2022-09-09T13:24:03;53.95;;;11.95;;
69057;SDS011;56128;37.534;-122.308;2022-09-09T13:26:32;44.40;;;11.20;;
69057;SDS011;56128;37.534;-122.308;2022-09-09T13:29:18;49.08;;;10.65;;
69057;SDS011;56128;37.534;-122.308;2022-09-09T13:31:44;50.05;;;11.18;;
69057;SDS011;56128;37.534;-122.308;2022-09-09T13:34:25;47.53;;;11.82;;
69057;SDS011;56128;37.534;-122.308;2022-09-09T13:36:55;47.08;;;11.05;;
69057;SDS011;56128;37.534;-122.308;2022-09-09T13:39:27;47.28;;;11.32;;
69057;SDS011;56128;37.534;-122.308;2022-09-09T13:41:54;52.65;;;11.95;;
69057;SDS011;56128;37.534;-122.308;2022-09-09T13:44:24;47.20;;;11.05;;
69057;SDS011;56128;37.534;-122.308;2022-09-09T13:47:03;48.72;;;10.50;;
69057;SDS011;56128;37.534;-122.308;2022-09-09T13:49:44;51.28;;;11.38;;
69057;SDS011;56128;37.534;-122.308;2022-09-09T13:52:11;58.90;;;12.45;;
69057;SDS011;56128;37.534;-122.308;2022-09-09T13:54:40;48.20;;;12.10;;
69057;SDS011;56128;37.534;-122.308;2022-09-09T13:57:17;53.05;;;11.15;;
69057;SDS011;56128;37.534;-122.308;2022-09-09T13:59:49;57.88;;;12.13;;
69057;SDS011;56128;37.534;-122.308;2022-09-09T14:02:16;51.90;;;11.05;;
69057;SDS011;56128;37.534;-122.308;2022-09-09T14:04:43;41.70;;;10.35;;
69057;SDS011;56128;37.534;-122.308;2022-09-09T14:07:12;42.90;;;11.30;;
69057;SDS011;56128;37.534;-122.308;2022-09-09T14:09:41;52.05;;;11.57;;
69057;SDS011;56128;37.534;-122.308;2022-09-09T14:12:10;52.72;;;11.70;;
69057;SDS011;56128;37.534;-122.308;2022-09-09T14:14:56;54.47;;;10.93;;
69057;SDS011;56128;37.534;-122.308;2022-09-09T14:17:22;52.03;;;10.82;;
69057;SDS011;56128;37.534;-122.308;2022-09-09T14:19:48;54.72;;;11.38;;
69057;SDS011;56128;37.534;-122.308;2022-09-09T14:22:14;51.83;;;11.73;;
69057;SDS011;56128;37.534;-122.308;2022-09-09T14:24:40;55.40;;;12.32;;
69057;SDS011;56128;37.534;-122.308;2022-09-09T14:27:06;52.42;;;11.82;;
69057;SDS011;56128;37.534;-122.308;2022-09-09T14:29:52;60.67;;;13.02;;
69057;SDS011;56128;37.534;-122.308;2022-09-09T14:32:19;59.22;;;12.25;;
69057;SDS011;56128;37.534;-122.308;2022-09-09T14:34:46;61.28;;;12.30;;
69057;SDS011;56128;37.534;-122.308;2022-09-09T14:37:15;52.85;;;11.80;;
69057;SDS011;56128;37.534;-122.308;2022-09-09T14:39:42;51.30;;;11.68;;
69057;SDS011;56128;37.534;-122.308;2022-09-09T14:42:15;48.97;;;11.10;;
69057;SDS011;56128;37.534;-122.308;2022-09-09T14:44:42;52.58;;;12.02;;
69057;SDS011;56128;37.534;-122.308;2022-09-09T14:47:08;51.78;;;11.95;;
69057;SDS011;56128;37.534;-122.308;2022-09-09T14:49:34;51.55;;;12.13;;
69057;SDS011;56128;37.534;-122.308;2022-09-09T14:52:01;48.08;;;11.07;;
69057;SDS011;56128;37.534;-122.308;2022-09-09T14:54:27;57.47;;;12.10;;
69057;SDS011;56128;37.534;-122.308;2022-09-09T14:56:54;49.67;;;12.32;;
69057;SDS011;56128;37.534;-122.308;2022-09-09T14:59:22;44.78;;;11.23;;
69057;SDS011;56128;37.534;-122.308;2022-09-09T15:01:48;55.85;;;13.07;;
69057;SDS011;56128;37.534;-122.308;2022-09-09T15:04:14;54.20;;;12.43;;
69057;SDS011;56128;37.534;-122.308;2022-09-09T15:07:00;52.30;;;11.57;;
69057;SDS011;56128;37.534;-122.308;2022-09-09T15:09:26;57.25;;;13.70;;
69057;SDS011;56128;37.534;-122.308;2022-09-09T15:11:52;57.10;;;12.48;;
69057;SDS011;56128;37.534;-122.308;2022-09-09T15:14:19;58.67;;;12.27;;
69057;SDS011;56128;37.534;-122.308;2022-09-09T15:16:45;58.30;;;13.13;;
69057;SDS011;56128;37.534;-122.308;2022-09-09T15:19:11;51.88;;;12.07;;
69057;SDS011;56128;37.534;-122.308;2022-09-09T15:21:37;56.85;;;12.82;;
69057;SDS011;56128;37.534;-122.308;2022-09-09T15:24:03;48.30;;;12.25;;
69057;SDS011;56128;37.534;-122.308;2022-09-09T15:26:32;54.17;;;12.77;;
69057;SDS011;56128;37.534;-122.308;2022-09-09T15:28:58;51.50;;;11.88;;
69057;SDS011;56128;37.534;-122.308;2022-09-09T15:31:26;50.45;;;12.18;;
69057;SDS011;56128;37.534;-122.308;2022-09-09T15:33:55;53.33;;;10.90;;
69057;SDS011;56128;37.534;-122.308;2022-09-09T15:36:27;46.95;;;12.52;;
69057;SDS011;56128;37.534;-122.308;2022-09-09T15:38:54;47.38;;;12.82;;
69057;SDS011;56128;37.534;-122.308;2022-09-09T15:41:21;50.92;;;11.77;;
69057;SDS011;56128;37.534;-122.308;2022-09-09T15:43:49;48.13;;;12.05;;
69057;SDS011;56128;37.534;-122.308;2022-09-09T15:48:43;51.15;;;11.88;;
69057;SDS011;56128;37.534;-122.308;2022-09-09T15:51:10;43.78;;;11.95;;
69057;SDS011;56128;37.534;-122.308;2022-09-09T15:53:37;39.92;;;11.75;;
69057;SDS011;56128;37.534;-122.308;2022-09-09T15:56:06;44.88;;;12.32;;
69057;SDS011;56128;37.534;-122.308;2022-09-09T15:58:33;48.53;;;11.80;;
69057;SDS011;56128;37.534;-122.308;2022-09-09T16:01:02;53.80;;;12.98;;
69057;SDS011;56128;37.534;-122.308;2022-09-09T16:03:30;49.28;;;13.13;;
69057;SDS011;56128;37.534;-122.308;2022-09-09T16:06:00;51.63;;;12.25;;
69057;SDS011;56128;37.534;-122.308;2022-09-09T16:08:36;44.58;;;11.65;;
69057;SDS011;56128;37.534;-122.308;2022-09-09T16:11:07;43.83;;;12.30;;
69057;SDS011;56128;37.534;-122.308;2022-09-09T16:13:41;48.25;;;12.77;;
69057;SDS011;56128;37.534;-122.308;2022-09-09T16:16:10;43.58;;;11.65;;
69057;SDS011;56128;37.534;-122.308;2022-09-09T16:18:38;41.13;;;11.02;;
69057;SDS011;56128;37.534;-122.308;2022-09-09T16:21:07;37.30;;;11.45;;